sensor_id;sensor_type;location;lat;lon;timestamp;pressure;altitude;pressure_sealevel;temperature;humidity
9721;BME280;4899;42.644;23.366;2022-10-22T11:09:37;94878.25;;;17.30;82.37
9721;BME280;4899;42.644;23.366;2022-10-22T11:12:10;94885.41;;;17.92;76.68
9721;BME280;4899;42.644;23.366;2022-10-22T11:14:51;94916.97;;;18.57;73.70
9721;BME280;4899;42.644;23.366;2022-10-22T11:17:22;94868.34;;;19.19;67.84
9721;BME280;4899;42.644;23.366;2022-10-22T11:19:52;94899.56;;;21.80;56.99
9721;BME280;4899;42.644;23.366;2022-10-22T11:22:27;94898.28;;;24.84;48.09
9721;BME280;4899;42.644;23.366;2022-10-22T11:25:00;94876.72;;;26.70;43.72
9721;BME280;4899;42.644;23.366;2022-10-22T11:27:31;94838.44;;;27.97;39.80
9721;BME280;4899;42.644;23.366;2022-10-22T11:30:03;94894.78;;;30.12;37.52
9721;BME280;4899;42.644;23.366;2022-10-22T11:32:30;94896.38;;;30.83;34.94
9721;BME280;4899;42.644;23.366;2022-10-22T11:35:02;94888.47;;;31.09;33.74
9721;BME280;4899;42.644;23.366;2022-10-22T11:37:31;94840.06;;;30.88;33.56
9721;BME280;4899;42.644;23.366;2022-10-22T11:40:05;94833.63;;;30.73;34.44
9721;BME280;4899;42.644;23.366;2022-10-22T11:42:35;94864.81;;;31.52;33.74
9721;BME280;4899;42.644;23.366;2022-10-22T11:45:05;94883.31;;;31.94;32.31
9721;BME280;4899;42.644;23.366;2022-10-22T11:47:34;94869.00;;;32.83;32.19
9721;BME280;4899;42.644;23.366;2022-10-22T11:50:22;94878.25;;;33.22;31.21
9721;BME280;4899;42.644;23.366;2022-10-22T11:53:03;94858.25;;;33.48;30.14
9721;BME280;4899;42.644;23.366;2022-10-22T11:55:42;94881.44;;;34.28;29.70
9721;BME280;4899;42.644;23.366;2022-10-22T11:58:30;94855.63;;;34.52;30.16
9721;BME280;4899;42.644;23.366;2022-10-22T12:01:16;94857.47;;;35.07;29.03
9721;BME280;4899;42.644;23.366;2022-10-22T12:03:48;94871.44;;;35.11;28.13
9721;BME280;4899;42.644;23.366;2022-10-22T12:06:19;94865.31;;;35.20;28.24
9721;BME280;4899;42.644;23.366;2022-10-22T12:08:53;94867.94;;;35.38;27.84
9721;BME280;4899;42.644;23.366;2022-10-22T12:11:25;94867.03;;;36.07;27.38
9721;BME280;4899;42.644;23.366;2022-10-22T12:14:16;94822.00;;;35.96;26.89
9721;BME280;4899;42.644;23.366;2022-10-22T12:16:46;94850.53;;;35.75;27.26
9721;BME280;4899;42.644;23.366;2022-10-22T12:19:23;94868.56;;;36.47;26.84
9721;BME280;4899;42.644;23.366;2022-10-22T12:21:53;94848.19;;;36.40;26.40
9721;BME280;4899;42.644;23.366;2022-10-22T12:24:23;94826.94;;;36.36;27.24
9721;BME280;4899;42.644;23.366;2022-10-22T12:26:51;94820.50;;;36.87;26.36
9721;BME280;4899;42.644;23.366;2022-10-22T12:29:19;94773.34;;;36.51;25.79
9721;BME280;4899;42.644;23.366;2022-10-22T12:31:48;94793.88;;;36.16;25.97
9721;BME280;4899;42.644;23.366;2022-10-22T12:34:17;94795.31;;;36.02;25.81
9721;BME280;4899;42.644;23.366;2022-10-22T12:36:47;94772.38;;;35.86;26.08
9721;BME280;4899;42.644;23.366;2022-10-22T12:39:19;94767.34;;;35.79;26.36
9721;BME280;4899;42.644;23.366;2022-10-22T12:41:46;94771.13;;;35.72;26.00
9721;BME280;4899;42.644;23.366;2022-10-22T12:44:16;94803.81;;;36.00;26.13
9721;BME280;4899;42.644;23.366;2022-10-22T12:46:45;94792.59;;;36.26;25.54
9721;BME280;4899;42.644;23.366;2022-10-22T12:49:18;94820.78;;;36.21;25.91
9721;BME280;4899;42.644;23.366;2022-10-22T12:51:49;94809.47;;;36.17;25.58
9721;BME280;4899;42.644;23.366;2022-10-22T12:54:24;94836.34;;;36.08;25.66
9721;BME280;4899;42.644;23.366;2022-10-22T12:56:54;94771.84;;;35.97;26.16
9721;BME280;4899;42.644;23.366;2022-10-22T12:59:25;94758.22;;;36.24;26.26
9721;BME280;4899;42.644;23.366;2022-10-22T13:01:54;94831.50;;;36.89;25.62
9721;BME280;4899;42.644;23.366;2022-10-22T13:04:31;94793.59;;;36.96;25.04
9721;BME280;4899;42.644;23.366;2022-10-22T13:07:15;94824.34;;;37.66;25.37
9721;BME280;4899;42.644;23.366;2022-10-22T13:09:44;94757.66;;;37.09;25.00
9721;BME280;4899;42.644;23.366;2022-10-22T13:12:12;94753.25;;;37.61;25.26
9721;BME280;4899;42.644;23.366;2022-10-22T13:14:43;94739.75;;;37.00;25.15
9721;BME280;4899;42.644;23.366;2022-10-22T13:17:13;94810.16;;;37.80;24.91
9721;BME280;4899;42.644;23.366;2022-10-22T13:19:48;94739.94;;;36.67;25.21
9721;BME280;4899;42.644;23.366;2022-10-22T13:22:31;94753.22;;;36.17;25.89
9721;BME280;4899;42.644;23.366;2022-10-22T13:25:14;94806.81;;;36.71;26.19
9721;BME280;4899;42.644;23.366;2022-10-22T13:27:45;94753.63;;;36.69;26.24
9721;BME280;4899;42.644;23.366;2022-10-22T13:30:19;94754.75;;;36.33;25.56
9721;BME280;4899;42.644;23.366;2022-10-22T13:32:51;94804.88;;;37.01;26.03
9721;BME280;4899;42.644;23.366;2022-10-22T13:35:22;94789.69;;;36.68;25.60
9721;BME280;4899;42.644;23.366;2022-10-22T13:37:50;94792.41;;;36.29;25.53
9721;BME280;4899;42.644;23.366;2022-10-22T13:40:18;94770.97;;;35.67;25.79
9721;BME280;4899;42.644;23.366;2022-10-22T13:42:45;94759.78;;;35.21;26.08
9721;BME280;4899;42.644;23.366;2022-10-22T13:45:12;94784.09;;;35.32;26.38
9721;BME280;4899;42.644;23.366;2022-10-22T13:47:41;94783.47;;;35.46;26.95
9721;BME280;4899;42.644;23.366;2022-10-22T13:50:13;94753.28;;;35.12;26.74
9721;BME280;4899;42.644;23.366;2022-10-22T13:52:43;94775.28;;;34.56;27.16
9721;BME280;4899;42.644;23.366;2022-10-22T13:55:16;94782.16;;;33.03;28.95
9721;BME280;4899;42.644;23.366;2022-10-22T13:57:43;94778.19;;;31.77;30.08
9721;BME280;4899;42.644;23.366;2022-10-22T14:00:13;94779.53;;;31.81;30.04
9721;BME280;4899;42.644;23.366;2022-10-22T14:02:42;94750.88;;;30.75;31.06
9721;BME280;4899;42.644;23.366;2022-10-22T14:05:09;94770.63;;;29.70;32.46
9721;BME280;4899;42.644;23.366;2022-10-22T14:07:36;94755.41;;;28.54;34.00
9721;BME280;4899;42.644;23.366;2022-10-22T14:10:12;94754.56;;;29.29;34.11
9721;BME280;4899;42.644;23.366;2022-10-22T14:12:40;94746.22;;;30.37;32.62
9721;BME280;4899;42.644;23.366;2022-10-22T14:15:08;94764.28;;;30.84;31.75
9721;BME280;4899;42.644;23.366;2022-10-22T14:17:35;94768.94;;;30.92;31.98
9721;BME280;4899;42.644;23.366;2022-10-22T14:20:05;94763.94;;;29.82;32.56
9721;BME280;4899;42.644;23.366;2022-10-22T14:22:32;94768.19;;;27.96;35.73
9721;BME280;4899;42.644;23.366;2022-10-22T14:24:59;94755.53;;;26.52;37.18
9721;BME280;4899;42.644;23.366;2022-10-22T14:27:26;94747.06;;;25.96;38.23
9721;BME280;4899;42.644;23.366;2022-10-22T14:29:53;94746.75;;;25.91;38.45
9721;BME280;4899;42.644;23.366;2022-10-22T14:32:19;94740.41;;;26.56;37.45
9721;BME280;4899;42.644;23.366;2022-10-22T14:34:46;94695.84;;;25.53;38.98
9721;BME280;4899;42.644;23.366;2022-10-22T14:37:19;94741.31;;;25.64;38.83
9721;BME280;4899;42.644;23.366;2022-10-22T14:39:47;94745.22;;;25.93;38.57
9721;BME280;4899;42.644;23.366;2022-10-22T14:42:24;94709.34;;;25.99;38.67
9721;BME280;4899;42.644;23.366;2022-10-22T14:44:51;94673.16;;;26.03;37.95
9721;BME280;4899;42.644;23.366;2022-10-22T14:47:18;94740.59;;;26.69;37.66
9721;BME280;4899;42.644;23.366;2022-10-22T14:49:45;94753.56;;;26.22;38.42
9721;BME280;4899;42.644;23.366;2022-10-22T14:52:12;94736.44;;;25.14;39.98
9721;BME280;4899;42.644;23.366;2022-10-22T14:54:40;94743.66;;;24.15;41.67
9721;BME280;4899;42.644;23.366;2022-10-22T14:57:08;94742.25;;;23.61;43.20
9721;BME280;4899;42.644;23.366;2022-10-22T14:59:35;94745.94;;;22.85;44.96
9721;BME280;4899;42.644;23.366;2022-10-22T15:02:02;94740.50;;;22.35;46.74
9721;BME280;4899;42.644;23.366;2022-10-22T15:04:29;94760.47;;;21.96;48.38
9721;BME280;4899;42.644;23.366;2022-10-22T15:06:56;94726.03;;;21.32;51.68
9721;BME280;4899;42.644;23.366;2022-10-22T15:09:23;94739.72;;;21.22;54.79
9721;BME280;4899;42.644;23.366;2022-10-22T15:11:51;94728.06;;;20.75;56.81
9721;BME280;4899;42.644;23.366;2022-10-22T15:14:18;94711.41;;;20.19;59.38
9721;BME280;4899;42.644;23.366;2022-10-22T15:16:45;94728.88;;;19.85;63.47
9721;BME280;4899;42.644;23.366;2022-10-22T15:19:12;94721.72;;;19.56;68.34
9721;BME280;4899;42.644;23.366;2022-10-22T15:21:39;94719.78;;;19.26;71.08
9721;BME280;4899;42.644;23.366;2022-10-22T15:24:06;94700.69;;;18.77;74.47
9721;BME280;4899;42.644;23.366;2022-10-22T15:26:33;94697.97;;;18.50;76.80
9721;BME280;4899;42.644;23.366;2022-10-22T15:29:02;94720.59;;;18.27;76.32
9721;BME280;4899;42.644;23.366;2022-10-22T15:31:46;94737.56;;;18.01;82.01
9721;BME280;4899;42.644;23.366;2022-10-22T15:34:18;94739.50;;;17.69;83.45
9721;BME280;4899;42.644;23.366;2022-10-22T15:36:45;94713.41;;;17.34;84.37
9721;BME280;4899;42.644;23.366;2022-10-22T15:39:12;94717.53;;;17.19;89.51
9721;BME280;4899;42.644;23.366;2022-10-22T15:41:39;94704.19;;;16.89;94.49
9721;BME280;4899;42.644;23.366;2022-10-22T15:44:13;94688.81;;;16.41;93.48
9721;BME280;4899;42.644;23.366;2022-10-22T15:46:40;94746.91;;;16.76;100.00
9721;BME280;4899;42.644;23.366;2022-10-22T15:49:07;94676.63;;;16.01;100.00
9721;BME280;4899;42.644;23.366;2022-10-22T15:51:34;94687.91;;;15.81;100.00
9721;BME280;4899;42.644;23.366;2022-10-22T15:54:01;94740.69;;;16.25;100.00
9721;BME280;4899;42.644;23.366;2022-10-22T15:56:28;94719.25;;;16.00;100.00
9721;BME280;4899;42.644;23.366;2022-10-22T16:21:58;94779.34;;;15.41;100.00
9721;BME280;4899;42.644;23.366;2022-10-22T16:24:26;94734.69;;;15.11;100.00
9721;BME280;4899;42.644;23.366;2022-10-22T16:26:53;94724.00;;;14.88;100.00
9721;BME280;4899;42.644;23.366;2022-10-22T16:29:20;94782.38;;;15.43;100.00
9721;BME280;4899;42.644;23.366;2022-10-22T16:31:47;94742.88;;;15.01;100.00
9721;BME280;4899;42.644;23.366;2022-10-22T16:34:14;94762.72;;;15.42;100.00
9721;BME280;4899;42.644;23.366;2022-10-22T16:36:40;94767.88;;;15.54;100.00
9721;BME280;4899;42.644;23.366;2022-10-22T16:39:09;94751.03;;;15.36;100.00
9721;BME280;4899;42.644;23.366;2022-10-22T16:41:36;94769.53;;;15.59;100.00
9721;BME280;4899;42.644;23.366;2022-10-22T16:44:04;94775.47;;;15.59;100.00
9721;BME280;4899;42.644;23.366;2022-10-22T16:46:33;94768.22;;;15.53;100.00
9721;BME280;4899;42.644;23.366;2022-10-22T16:49:02;94674.63;;;14.85;100.00
9721;BME280;4899;42.644;23.366;2022-10-22T16:51:29;94698.53;;;15.15;100.00
9721;BME280;4899;42.644;23.366;2022-10-22T16:53:56;94754.94;;;15.42;100.00
9721;BME280;4899;42.644;23.366;2022-10-22T16:56:25;94719.28;;;15.15;100.00
9721;BME280;4899;42.644;23.366;2022-10-22T16:58:53;94761.50;;;15.52;100.00
9721;BME280;4899;42.644;23.366;2022-10-22T17:03:33;94756.56;;;15.47;100.00
9721;BME280;4899;42.644;23.366;2022-10-22T17:08:29;94750.19;;;15.44;100.00
9721;BME280;4899;42.644;23.366;2022-10-22T17:10:56;94707.59;;;15.08;100.00
9721;BME280;4899;42.644;23.366;2022-10-22T17:13:23;94727.59;;;15.20;100.00
9721;BME280;4899;42.644;23.366;2022-10-22T17:18:06;94748.22;;;15.53;97.33
9721;BME280;4899;42.644;23.366;2022-10-22T17:20:32;94729.13;;;15.46;95.59
9721;BME280;4899;42.644;23.366;2022-10-22T17:22:59;94665.25;;;15.04;98.15
9721;BME280;4899;42.644;23.366;2022-10-22T17:25:34;94741.91;;;15.63;100.00
9721;BME280;4899;42.644;23.366;2022-10-22T17:28:02;94746.50;;;15.57;99.94
9721;BME280;4899;42.644;23.366;2022-10-22T17:30:29;94751.47;;;15.50;100.00
9721;BME280;4899;42.644;23.366;2022-10-22T17:32:55;94760.78;;;15.39;100.00
9721;BME280;4899;42.644;23.366;2022-10-22T17:35:24;94757.81;;;15.28;100.00
9721;BME280;4899;42.644;23.366;2022-10-22T17:40:13;94733.94;;;14.98;100.00
9721;BME280;4899;42.644;23.366;2022-10-22T17:42:41;94713.63;;;14.88;96.73
9721;BME280;4899;42.644;23.366;2022-10-22T17:45:09;94757.56;;;15.09;100.00
9721;BME280;4899;42.644;23.366;2022-10-22T17:50:07;94762.69;;;15.18;97.44
9721;BME280;4899;42.644;23.366;2022-10-22T17:55:06;94723.78;;;14.93;100.00
9721;BME280;4899;42.644;23.366;2022-10-22T17:57:33;94761.50;;;15.15;100.00
9721;BME280;4899;42.644;23.366;2022-10-22T18:00:00;94754.97;;;15.09;100.00
9721;BME280;4899;42.644;23.366;2022-10-22T18:02:26;94758.31;;;14.97;100.00
9721;BME280;4899;42.644;23.366;2022-10-22T18:04:56;94747.47;;;14.71;100.00
9721;BME280;4899;42.644;23.366;2022-10-22T18:07:23;94744.44;;;14.69;100.00
9721;BME280;4899;42.644;23.366;2022-10-22T18:09:50;94759.97;;;14.69;100.00
9721;BME280;4899;42.644;23.366;2022-10-22T18:12:18;94767.31;;;14.67;100.00
9721;BME280;4899;42.644;23.366;2022-10-22T18:14:45;94768.13;;;14.59;100.00
9721;BME280;4899;42.644;23.366;2022-10-22T18:17:12;94768.84;;;14.47;100.00
9721;BME280;4899;42.644;23.366;2022-10-22T18:19:39;94749.81;;;14.22;100.00
9721;BME280;4899;42.644;23.366;2022-10-22T18:22:06;94749.13;;;14.13;100.00
9721;BME280;4899;42.644;23.366;2022-10-22T18:24:34;94759.78;;;14.11;100.00
9721;BME280;4899;42.644;23.366;2022-10-22T18:27:01;94733.06;;;13.78;100.00
9721;BME280;4899;42.644;23.366;2022-10-22T18:29:29;94775.72;;;13.93;100.00
9721;BME280;4899;42.644;23.366;2022-10-22T18:31:56;94738.47;;;13.64;100.00
9721;BME280;4899;42.644;23.366;2022-10-22T18:34:23;94764.72;;;13.75;100.00
9721;BME280;4899;42.644;23.366;2022-10-22T18:36:50;94775.56;;;13.68;100.00
9721;BME280;4899;42.644;23.366;2022-10-22T18:39:17;94778.31;;;13.63;100.00
9721;BME280;4899;42.644;23.366;2022-10-22T18:41:44;94780.00;;;13.59;100.00
9721;BME280;4899;42.644;23.366;2022-10-22T18:44:12;94778.84;;;13.48;100.00
9721;BME280;4899;42.644;23.366;2022-10-22T18:46:41;94767.50;;;13.32;100.00
9721;BME280;4899;42.644;23.366;2022-10-22T18:49:13;94773.09;;;13.34;100.00
9721;BME280;4899;42.644;23.366;2022-10-22T18:51:42;94773.00;;;13.21;100.00
9721;BME280;4899;42.644;23.366;2022-10-22T18:54:09;94752.53;;;12.99;100.00
9721;BME280;4899;42.644;23.366;2022-10-22T18:56:37;94783.78;;;13.23;100.00
9721;BME280;4899;42.644;23.366;2022-10-22T18:59:04;94777.28;;;13.17;100.00
9721;BME280;4899;42.644;23.366;2022-10-22T19:01:30;94794.88;;;13.15;100.00
9721;BME280;4899;42.644;23.366;2022-10-22T19:04:01;94798.72;;;13.01;100.00
9721;BME280;4899;42.644;23.366;2022-10-22T19:06:29;94795.22;;;12.88;100.00
9721;BME280;4899;42.644;23.366;2022-10-22T19:08:56;94798.59;;;12.80;100.00
9721;BME280;4899;42.644;23.366;2022-10-22T19:11:24;94767.31;;;12.55;100.00
9721;BME280;4899;42.644;23.366;2022-10-22T19:13:51;94764.91;;;12.59;100.00
9721;BME280;4899;42.644;23.366;2022-10-22T19:19:02;94813.00;;;12.89;100.00
9721;BME280;4899;42.644;23.366;2022-10-22T19:21:30;94812.84;;;12.86;100.00
9721;BME280;4899;42.644;23.366;2022-10-22T19:23:58;94809.34;;;12.82;100.00
9721;BME280;4899;42.644;23.366;2022-10-22T19:26:26;94812.84;;;12.86;100.00
9721;BME280;4899;42.644;23.366;2022-10-22T19:31:28;94813.28;;;12.88;100.00
9721;BME280;4899;42.644;23.366;2022-10-22T19:33:56;94808.75;;;12.85;100.00
9721;BME280;4899;42.644;23.366;2022-10-22T19:36:24;94814.19;;;13.01;100.00
9721;BME280;4899;42.644;23.366;2022-10-22T19:38:52;94811.16;;;13.16;100.00
9721;BME280;4899;42.644;23.366;2022-10-22T19:43:52;94791.13;;;12.96;100.00
9721;BME280;4899;42.644;23.366;2022-10-22T19:46:21;94780.69;;;12.75;100.00
9721;BME280;4899;42.644;23.366;2022-10-22T19:51:14;94786.44;;;12.89;100.00
9721;BME280;4899;42.644;23.366;2022-10-22T19:53:42;94756.53;;;12.62;100.00
9721;BME280;4899;42.644;23.366;2022-10-22T19:56:10;94778.06;;;12.83;100.00
9721;BME280;4899;42.644;23.366;2022-10-22T19:58:37;94743.94;;;12.60;100.00
9721;BME280;4899;42.644;23.366;2022-10-22T20:01:05;94787.72;;;13.12;100.00
9721;BME280;4899;42.644;23.366;2022-10-22T20:03:32;94788.81;;;13.20;100.00
9721;BME280;4899;42.644;23.366;2022-10-22T20:06:01;94791.22;;;13.16;100.00
9721;BME280;4899;42.644;23.366;2022-10-22T20:08:29;94798.06;;;13.12;100.00
9721;BME280;4899;42.644;23.366;2022-10-22T20:10:56;94771.06;;;13.01;100.00
9721;BME280;4899;42.644;23.366;2022-10-22T20:13:23;94780.94;;;12.99;100.00
9721;BME280;4899;42.644;23.366;2022-10-22T20:15:50;94800.09;;;12.98;100.00
9721;BME280;4899;42.644;23.366;2022-10-22T20:20:16;94782.81;;;12.55;100.00
9721;BME280;4899;42.644;23.366;2022-10-22T20:22:43;94749.88;;;12.26;100.00
9721;BME280;4899;42.644;23.366;2022-10-22T20:25:12;94794.50;;;12.27;100.00
9721;BME280;4899;42.644;23.366;2022-10-22T20:30:05;94784.63;;;12.29;100.00
9721;BME280;4899;42.644;23.366;2022-10-22T20:32:35;94760.66;;;12.02;100.00
9721;BME280;4899;42.644;23.366;2022-10-22T20:35:03;94750.63;;;11.92;100.00
9721;BME280;4899;42.644;23.366;2022-10-22T20:37:30;94770.19;;;12.02;100.00
9721;BME280;4899;42.644;23.366;2022-10-22T20:42:27;94782.06;;;12.20;100.00
9721;BME280;4899;42.644;23.366;2022-10-22T20:44:54;94753.50;;;11.99;100.00
9721;BME280;4899;42.644;23.366;2022-10-22T20:47:21;94785.53;;;12.16;100.00
9721;BME280;4899;42.644;23.366;2022-10-22T20:49:47;94789.00;;;12.11;100.00
9721;BME280;4899;42.644;23.366;2022-10-22T20:52:14;94780.81;;;12.09;100.00
9721;BME280;4899;42.644;23.366;2022-10-22T20:54:41;94789.47;;;12.05;100.00
9721;BME280;4899;42.644;23.366;2022-10-22T20:57:10;94802.97;;;12.01;100.00
9721;BME280;4899;42.644;23.366;2022-10-22T20:59:39;94786.72;;;12.10;100.00
9721;BME280;4899;42.644;23.366;2022-10-22T21:02:07;94777.03;;;12.07;100.00
9721;BME280;4899;42.644;23.366;2022-10-22T21:04:34;94766.78;;;11.67;100.00
9721;BME280;4899;42.644;23.366;2022-10-22T21:07:01;94770.25;;;11.71;100.00
9721;BME280;4899;42.644;23.366;2022-10-22T21:09:28;94803.97;;;11.83;100.00
9721;BME280;4899;42.644;23.366;2022-10-22T21:11:55;94787.50;;;11.62;100.00
9721;BME280;4899;42.644;23.366;2022-10-22T21:14:27;94792.16;;;11.82;100.00
9721;BME280;4899;42.644;23.366;2022-10-22T21:16:56;94783.34;;;11.83;100.00
9721;BME280;4899;42.644;23.366;2022-10-22T21:19:23;94803.97;;;11.83;100.00
9721;BME280;4899;42.644;23.366;2022-10-22T21:24:33;94805.09;;;12.08;100.00
9721;BME280;4899;42.644;23.366;2022-10-22T21:27:00;94806.44;;;12.06;100.00
9721;BME280;4899;42.644;23.366;2022-10-22T21:29:28;94768.19;;;11.82;100.00
9721;BME280;4899;42.644;23.366;2022-10-22T21:31:55;94794.00;;;12.08;100.00
9721;BME280;4899;42.644;23.366;2022-10-22T21:37:27;94694.03;;;11.79;100.00
9721;BME280;4899;42.644;23.366;2022-10-22T21:53:10;94797.69;;;12.67;100.00
9721;BME280;4899;42.644;23.366;2022-10-22T21:58:10;94763.25;;;12.28;100.00
9721;BME280;4899;42.644;23.366;2022-10-22T22:02:39;94772.50;;;12.21;100.00
9721;BME280;4899;42.644;23.366;2022-10-22T22:05:07;94776.84;;;11.86;100.00
9721;BME280;4899;42.644;23.366;2022-10-22T22:10:12;94793.72;;;11.61;100.00
9721;BME280;4899;42.644;23.366;2022-10-22T22:12:39;94776.06;;;11.37;100.00
9721;BME280;4899;42.644;23.366;2022-10-22T22:15:07;94784.72;;;11.41;100.00
9721;BME280;4899;42.644;23.366;2022-10-22T22:17:34;94788.94;;;11.37;100.00
9721;BME280;4899;42.644;23.366;2022-10-22T22:20:01;94779.53;;;11.32;100.00
9721;BME280;4899;42.644;23.366;2022-10-22T22:22:30;94802.25;;;11.30;100.00
9721;BME280;4899;42.644;23.366;2022-10-22T22:24:57;94781.31;;;11.23;100.00
9721;BME280;4899;42.644;23.366;2022-10-22T22:27:25;94783.75;;;11.28;100.00
9721;BME280;4899;42.644;23.366;2022-10-22T22:29:52;94784.34;;;11.25;100.00
9721;BME280;4899;42.644;23.366;2022-10-22T22:32:19;94764.66;;;11.29;100.00
9721;BME280;4899;42.644;23.366;2022-10-22T22:34:46;94757.31;;;11.14;100.00
9721;BME280;4899;42.644;23.366;2022-10-22T22:40:45;94766.19;;;11.30;100.00
9721;BME280;4899;42.644;23.366;2022-10-22T22:43:11;94738.22;;;11.06;100.00
9721;BME280;4899;42.644;23.366;2022-10-22T22:45:38;94764.53;;;11.34;100.00
9721;BME280;4899;42.644;23.366;2022-10-22T22:48:05;94735.84;;;11.19;100.00
9721;BME280;4899;42.644;23.366;2022-10-22T22:50:32;94747.97;;;11.18;100.00
9721;BME280;4899;42.644;23.366;2022-10-22T22:52:59;94744.50;;;11.23;100.00
9721;BME280;4899;42.644;23.366;2022-10-22T22:55:26;94762.88;;;11.38;100.00
9721;BME280;4899;42.644;23.366;2022-10-22T22:57:57;94755.78;;;11.44;100.00
9721;BME280;4899;42.644;23.366;2022-10-22T23:02:28;94769.97;;;11.33;100.00
9721;BME280;4899;42.644;23.366;2022-10-22T23:04:54;94781.53;;;11.13;100.00
9721;BME280;4899;42.644;23.366;2022-10-22T23:07:21;94750.47;;;10.78;100.00
9721;BME280;4899;42.644;23.366;2022-10-22T23:09:48;94772.06;;;10.91;100.00
9721;BME280;4899;42.644;23.366;2022-10-22T23:12:15;94782.81;;;10.93;100.00
9721;BME280;4899;42.644;23.366;2022-10-22T23:17:16;94750.28;;;10.97;100.00
9721;BME280;4899;42.644;23.366;2022-10-22T23:19:43;94780.72;;;11.26;100.00
9721;BME280;4899;42.644;23.366;2022-10-22T23:25:09;94789.75;;;11.55;100.00
9721;BME280;4899;42.644;23.366;2022-10-22T23:27:36;94787.81;;;11.60;100.00
9721;BME280;4899;42.644;23.366;2022-10-22T23:31:49;94788.19;;;11.85;100.00
9721;BME280;4899;42.644;23.366;2022-10-22T23:36:57;94721.25;;;11.62;100.00
9721;BME280;4899;42.644;23.366;2022-10-22T23:39:26;94767.78;;;11.97;100.00
9721;BME280;4899;42.644;23.366;2022-10-22T23:41:54;94793.56;;;12.06;100.00
9721;BME280;4899;42.644;23.366;2022-10-22T23:47:33;94769.75;;;12.09;100.00
9721;BME280;4899;42.644;23.366;2022-10-22T23:50:00;94790.56;;;12.21;100.00
9721;BME280;4899;42.644;23.366;2022-10-22T23:52:27;94807.41;;;12.27;100.00
9721;BME280;4899;42.644;23.366;2022-10-22T23:54:54;94776.88;;;12.12;100.00
9721;BME280;4899;42.644;23.366;2022-10-22T23:57:21;94772.94;;;12.06;100.00
9721;BME280;4899;42.644;23.366;2022-10-22T23:59:48;94798.44;;;12.24;100.00
